Time;durP1;ratioP1;P1;durP2;ratioP2;P2;SDS_P1;SDS_P2;PMS_P1;PMS_P2;Temp;Humidity;BMP_temperature;BMP_pressure;BME280_temperature;BME280_humidity;BME280_pressure;Samples;Min_cycle;Max_cycle;Signal;HPM_P1;HPM_P2
2021/04/29 00:02:01;;;;;;;18.55;11.65;;;;;;;10.86;100.00;98941.38;20831061;28;20037;-68
2021/04/29 00:12:06;;;;;;;16.40;11.85;;;;;;;10.86;100.00;98951.84;20816946;28;20784;-68
2021/04/29 00:22:07;;;;;;;19.63;12.45;;;;;;;10.80;100.00;98952.31;20768515;22;20041;-68
2021/04/29 00:32:08;;;;;;;18.02;11.48;;;;;;;10.56;100.00;98962.91;20822084;28;20049;-69
2021/04/29 00:42:10;;;;;;;21.25;12.43;;;;;;;10.56;100.00;98969.91;20826794;28;20056;-69
2021/04/29 00:52:12;;;;;;;12.82;9.23;;;;;;;10.52;100.00;98978.94;20810403;28;20045;-69
2021/04/29 01:02:14;;;;;;;15.70;9.85;;;;;;;10.37;100.00;98978.31;20823396;28;20496;-69
2021/04/29 01:12:20;;;;;;;16.48;10.57;;;;;;;10.35;100.00;98987.25;20823800;28;20473;-69
2021/04/29 01:22:21;;;;;;;18.33;10.60;;;;;;;10.36;100.00;99005.44;20807733;28;20045;-70
2021/04/29 01:32:23;;;;;;;15.23;10.52;;;;;;;10.47;100.00;99009.84;20821584;28;20049;-69
2021/04/29 01:42:24;;;;;;;12.55;8.73;;;;;;;10.29;100.00;99014.69;20821683;28;20052;-70
2021/04/29 01:52:26;;;;;;;15.07;9.90;;;;;;;10.27;100.00;99027.88;20805739;28;20041;-70
2021/04/29 02:02:27;;;;;;;10.55;7.82;;;;;;;10.18;100.00;99044.25;20802528;28;20057;-71
2021/04/29 02:12:33;;;;;;;12.82;6.95;;;;;;;10.24;100.00;99045.59;20819746;28;20045;-71
2021/04/29 02:22:38;;;;;;;11.65;7.47;;;;;;;10.23;100.00;99067.44;20793796;28;20131;-70
2021/04/29 02:32:40;;;;;;;11.80;7.37;;;;;;;10.37;100.00;99076.88;20818079;28;20053;-71
2021/04/29 02:42:42;;;;;;;9.18;6.45;;;;;;;10.40;100.00;99081.88;20818278;28;20049;-71
2021/04/29 02:52:45;;;;;;;10.30;6.80;;;;;;;10.37;100.00;99089.94;20802701;28;20049;-71
2021/04/29 03:02:46;;;;;;;11.13;7.65;;;;;;;10.36;100.00;99088.31;20817400;28;20042;-71
2021/04/29 03:12:48;;;;;;;15.23;8.75;;;;;;;10.45;100.00;99111.16;20818671;28;20068;-71
2021/04/29 03:22:51;;;;;;;15.05;9.95;;;;;;;10.32;100.00;99100.75;20791553;28;20111;-71
2021/04/29 03:32:52;;;;;;;17.08;11.20;;;;;;;10.45;100.00;99111.16;20833106;28;20500;-70
2021/04/29 03:42:55;;;;;;;16.80;10.45;;;;;;;10.37;100.00;99122.16;20816548;28;20107;-70
2021/04/29 03:52:57;;;;;;;16.33;10.30;;;;;;;10.19;100.00;99142.69;20830432;28;20060;-71
2021/04/29 04:02:58;;;;;;;17.02;10.15;;;;;;;10.23;100.00;99153.75;20838021;28;20049;-70
2021/04/29 04:12:59;;;;;;;18.38;11.13;;;;;;;10.11;100.00;99142.34;20855581;28;20098;-71
2021/04/29 04:23:00;;;;;;;16.77;9.82;;;;;;;9.82;100.00;99162.75;20840229;28;20050;-72
2021/04/29 04:33:03;;;;;;;15.98;10.48;;;;;;;9.98;100.00;99162.47;20827447;28;20102;-71
2021/04/29 04:43:04;;;;;;;14.98;9.75;;;;;;;10.26;100.00;99159.56;20827532;28;20061;-72
2021/04/29 04:53:05;;;;;;;16.00;9.63;;;;;;;10.47;100.00;99174.63;20811345;28;20436;-70
2021/04/29 05:03:07;;;;;;;14.02;8.45;;;;;;;10.34;100.00;99173.88;20824986;28;20050;-70
2021/04/29 05:13:09;;;;;;;10.82;7.18;;;;;;;10.40;100.00;99191.75;20824296;28;20417;-70
2021/04/29 05:23:10;;;;;;;12.13;7.97;;;;;;;10.42;100.00;99192.44;20808128;28;20095;-70
2021/04/29 05:33:12;;;;;;;16.85;8.45;;;;;;;10.59;100.00;99197.31;20822847;28;20045;-70
2021/04/29 05:43:13;;;;;;;13.48;9.02;;;;;;;10.54;100.00;99202.88;20821701;28;20063;-71
2021/04/29 05:53:14;;;;;;;14.93;8.60;;;;;;;10.71;100.00;99199.03;20806557;28;20469;-72
2021/04/29 06:03:16;;;;;;;11.52;7.85;;;;;;;11.21;100.00;99204.88;20819871;28;20097;-70
2021/04/29 06:13:18;;;;;;;13.10;8.82;;;;;;;11.42;100.00;99211.09;20750609;28;20301;-70
2021/04/29 06:23:19;;;;;;;12.13;7.78;;;;;;;11.41;100.00;99214.66;20744724;28;20108;-71
2021/04/29 06:33:23;;;;;;;9.93;6.40;;;;;;;11.79;100.00;99219.59;20717705;28;20061;-71
2021/04/29 06:43:25;;;;;;;11.10;7.07;;;;;;;11.80;100.00;99224.72;20727061;28;20046;-72
2021/04/29 06:53:26;;;;;;;12.55;6.85;;;;;;;11.81;100.00;99223.78;20733772;28;20486;-72
2021/04/29 07:03:27;;;;;;;10.68;7.22;;;;;;;12.27;100.00;99231.47;20744365;28;20046;-72
2021/04/29 07:13:29;;;;;;;13.07;6.40;;;;;;;12.44;98.11;99248.50;20738203;28;20485;-72
2021/04/29 07:23:30;;;;;;;16.27;8.05;;;;;;;12.65;95.96;99264.28;20735804;28;20054;-72
2021/04/29 07:33:31;;;;;;;16.42;6.85;;;;;;;12.28;95.30;99258.53;20744046;28;20506;-72
2021/04/29 07:43:33;;;;;;;8.93;5.97;;;;;;;12.83;94.90;99261.00;20730568;28;20469;-72
2021/04/29 07:53:35;;;;;;;11.60;6.50;;;;;;;13.30;88.27;99258.91;20730988;28;20042;-72
2021/04/29 08:03:36;;;;;;;15.60;7.07;;;;;;;12.96;88.62;99270.50;20738358;28;20042;-72
2021/04/29 08:13:37;;;;;;;12.57;7.43;;;;;;;12.65;90.75;99277.41;20750906;28;20053;-71
2021/04/29 08:23:39;;;;;;;13.70;7.45;;;;;;;12.72;90.53;99276.81;20762434;28;20398;-71
2021/04/29 08:33:40;;;;;;;12.75;7.53;;;;;;;12.80;88.57;99286.66;20743658;28;20046;-72
2021/04/29 08:43:41;;;;;;;13.20;8.25;;;;;;;12.83;88.26;99287.28;20744558;28;20489;-71
2021/04/29 08:53:43;;;;;;;13.40;8.10;;;;;;;13.00;87.44;99283.28;20775347;23;20107;-69
2021/04/29 09:03:46;;;;;;;12.85;8.35;;;;;;;12.84;86.40;99296.00;20807727;28;20453;-70
2021/04/29 09:13:55;;;;;;;15.07;8.38;;;;;;;12.66;87.83;99310.59;20821177;28;20076;-70
2021/04/29 09:23:56;;;;;;;13.23;8.13;;;;;;;12.70;90.70;99307.59;20782774;28;20045;-70
2021/04/29 09:34:00;;;;;;;15.75;9.65;;;;;;;12.94;97.72;99302.16;20807004;28;20046;-70
2021/04/29 09:44:10;;;;;;;11.88;8.40;;;;;;;13.73;97.98;99290.28;20811176;28;20619;-70
2021/04/29 09:54:23;;;;;;;15.63;10.52;;;;;;;14.37;93.73;99293.53;20810668;28;20038;-70
2021/04/29 10:04:27;;;;;;;13.95;9.45;;;;;;;14.66;88.56;99298.03;20802900;28;20038;-70
2021/04/29 10:14:33;;;;;;;13.70;9.30;;;;;;;14.82;84.47;99306.22;20808708;28;20041;-70
2021/04/29 10:24:36;;;;;;;14.65;10.23;;;;;;;13.87;86.42;99318.03;20826722;28;20041;-69
2021/04/29 10:34:45;;;;;;;12.85;9.73;;;;;;;14.10;85.59;99304.63;20802497;28;20091;-69
2021/04/29 10:44:48;;;;;;;13.65;9.23;;;;;;;14.32;82.53;99300.97;20799071;28;20052;-69
2021/04/29 10:54:53;;;;;;;12.20;9.10;;;;;;;14.82;78.91;99293.91;20802807;28;20049;-68
2021/04/29 11:04:55;;;;;;;14.77;10.30;;;;;;;15.59;76.15;99295.69;20780601;28;20508;-69
2021/04/29 11:14:56;;;;;;;13.93;10.05;;;;;;;15.72;74.91;99289.13;20816374;28;20305;-69
2021/04/29 11:24:58;;;;;;;15.75;10.52;;;;;;;15.77;73.20;99297.44;20816724;28;20053;-71
2021/04/29 11:35:01;;;;;;;14.65;9.40;;;;;;;15.46;74.80;99295.13;20817367;28;20045;-70
2021/04/29 11:45:14;;;;;;;16.40;9.48;;;;;;;15.81;68.60;99292.72;20821210;28;20560;-70
2021/04/29 11:55:25;;;;;;;11.93;7.80;;;;;;;15.54;68.45;99290.03;20829314;28;20048;-70
2021/04/29 12:05:38;;;;;;;12.15;7.40;;;;;;;15.86;69.23;99294.91;20824700;28;20422;-71
2021/04/29 12:15:40;;;;;;;11.85;6.95;;;;;;;16.37;57.57;99303.19;20819167;28;20054;-71
2021/04/29 12:25:42;;;;;;;11.57;6.78;;;;;;;17.16;55.64;99281.44;20835011;28;20084;-69
2021/04/29 12:35:44;;;;;;;13.10;7.35;;;;;;;17.68;52.49;99287.63;20822744;28;20049;-69
2021/04/29 12:45:56;;;;;;;13.38;8.18;;;;;;;16.74;54.72;99291.75;20818337;28;20049;-70
2021/04/29 12:55:58;;;;;;;6.20;3.92;;;;;;;15.34;51.67;99332.19;20830794;28;20053;-71
2021/04/29 13:06:04;;;;;;;6.30;3.53;;;;;;;14.60;53.57;99328.34;20790026;28;20045;-69
2021/04/29 13:16:05;;;;;;;6.78;3.50;;;;;;;14.79;57.24;99338.09;20761270;28;20052;-69
2021/04/29 13:26:13;;;;;;;8.07;4.50;;;;;;;14.24;67.57;99332.38;20827322;28;20091;-68
2021/04/29 13:36:16;;;;;;;8.25;4.25;;;;;;;14.81;69.47;99326.47;20796888;28;20045;-69
2021/04/29 13:46:17;;;;;;;10.10;4.90;;;;;;;15.65;62.03;99318.84;20802637;28;20132;-68
2021/04/29 13:56:19;;;;;;;10.05;4.50;;;;;;;16.13;59.41;99300.25;20830576;28;20103;-70
2021/04/29 14:06:20;;;;;;;7.50;4.20;;;;;;;16.47;55.20;99292.56;20805400;28;20092;-70
2021/04/29 14:16:21;;;;;;;7.38;3.20;;;;;;;16.59;55.44;99294.06;20798399;28;20042;-70
2021/04/29 14:26:25;;;;;;;7.88;4.78;;;;;;;15.39;53.45;99326.47;20761795;28;20319;-69
2021/04/29 14:36:26;;;;;;;16.30;6.07;;;;;;;14.51;67.43;99343.19;20775870;28;20046;-70
2021/04/29 14:46:27;;;;;;;10.13;4.70;;;;;;;14.66;61.30;99322.56;20771462;28;20450;-69
2021/04/29 14:56:28;;;;;;;10.23;4.53;;;;;;;15.26;56.03;99318.88;20782233;28;20054;-68
2021/04/29 15:06:30;;;;;;;9.90;4.22;;;;;;;15.43;54.83;99319.97;20821073;28;20042;-68
2021/04/29 15:16:32;;;;;;;6.07;3.47;;;;;;;15.39;49.84;99329.94;20826429;28;20451;-68
2021/04/29 15:26:34;;;;;;;7.72;3.10;;;;;;;15.60;50.05;99326.34;20839626;28;20492;-68
2021/04/29 15:36:37;;;;;;;5.63;2.75;;;;;;;16.17;45.43;99326.22;20830676;28;20504;-68
2021/04/29 15:46:38;;;;;;;5.45;2.40;;;;;;;15.56;46.63;99332.91;20828179;28;20088;-69
2021/04/29 15:56:41;;;;;;;4.70;2.47;;;;;;;15.40;46.04;99336.91;20819289;28;20041;-69
2021/04/29 16:06:43;;;;;;;6.97;2.55;;;;;;;15.41;47.07;99343.00;20832162;28;20057;-69
2021/04/29 16:16:45;;;;;;;6.72;2.05;;;;;;;15.45;46.08;99351.47;20829982;28;20045;-69
2021/04/29 16:26:46;;;;;;;4.63;1.50;;;;;;;15.19;48.43;99365.19;20821055;28;20045;-71
2021/04/29 16:37:00;;;;;;;5.03;1.70;;;;;;;15.28;47.12;99368.84;20785164;28;20069;-71
2021/04/29 16:47:03;;;;;;;4.85;2.10;;;;;;;15.29;44.90;99384.50;20828554;28;20068;-71
2021/04/29 16:57:05;;;;;;;5.88;2.88;;;;;;;15.12;44.24;99385.19;20819345;28;20460;-70
2021/04/29 17:07:10;;;;;;;6.38;3.08;;;;;;;14.91;44.39;99405.53;20823932;28;20129;-70
2021/04/29 17:17:12;;;;;;;5.93;2.65;;;;;;;15.12;44.50;99405.44;20808031;28;20053;-71
2021/04/29 17:27:14;;;;;;;6.40;3.05;;;;;;;14.76;45.63;99418.25;20816011;28;20122;-70
2021/04/29 17:37:16;;;;;;;8.85;3.65;;;;;;;14.90;43.63;99438.94;20810758;28;20050;-70
2021/04/29 17:47:17;;;;;;;12.65;4.25;;;;;;;14.66;44.62;99435.81;20822335;28;20099;-70
2021/04/29 17:57:19;;;;;;;8.20;3.92;;;;;;;14.18;46.04;99447.84;20821591;28;20211;-70
2021/04/29 18:07:21;;;;;;;6.75;3.53;;;;;;;13.77;46.88;99469.72;20804522;28;20115;-70
2021/04/29 18:17:44;;;;;;;7.53;3.53;;;;;;;13.38;49.38;99482.50;20797836;28;20477;-70
2021/04/29 18:27:49;;;;;;;8.98;4.22;;;;;;;13.11;49.39;99490.81;20824853;28;20144;-69
2021/04/29 18:37:51;;;;;;;9.07;4.93;;;;;;;12.75;48.64;99507.63;20815238;28;20045;-70
2021/04/29 18:47:54;;;;;;;11.45;4.15;;;;;;;12.43;48.78;99525.84;20795150;28;20087;-69
2021/04/29 18:57:56;;;;;;;11.35;5.53;;;;;;;12.26;50.84;99530.69;20809921;28;20053;-70
2021/04/29 19:07:57;;;;;;;9.95;5.65;;;;;;;11.84;51.89;99540.78;20812745;28;20041;-70
2021/04/29 19:17:59;;;;;;;9.77;5.20;;;;;;;11.57;53.27;99554.09;20804754;28;20057;-69
2021/04/29 19:28:00;;;;;;;9.05;4.93;;;;;;;11.44;53.24;99573.38;20820431;28;20100;-70
2021/04/29 19:38:01;;;;;;;10.68;4.72;;;;;;;11.26;54.29;99593.03;20816095;28;20041;-69
2021/04/29 19:48:04;;;;;;;7.47;4.72;;;;;;;11.10;53.16;99595.88;20814056;28;20053;-69
2021/04/29 19:58:05;;;;;;;10.32;4.93;;;;;;;10.88;54.44;99609.59;20819925;28;20559;-70
2021/04/29 20:08:07;;;;;;;10.55;5.03;;;;;;;10.66;55.38;99617.25;20827654;28;20037;-69
2021/04/29 20:18:09;;;;;;;11.80;5.82;;;;;;;10.44;56.86;99666.69;20829949;28;20041;-70
2021/04/29 20:28:10;;;;;;;10.57;5.68;;;;;;;10.17;58.63;99678.00;20845377;28;20104;-70
2021/04/29 20:38:11;;;;;;;8.70;5.00;;;;;;;10.10;59.86;99684.53;20829905;28;20069;-70
2021/04/29 20:48:12;;;;;;;7.25;4.35;;;;;;;9.91;60.67;99704.91;20825901;28;20511;-70
2021/04/29 20:58:14;;;;;;;7.10;4.30;;;;;;;9.58;62.66;99714.84;20807201;28;20110;-69
2021/04/29 21:08:15;;;;;;;7.32;4.55;;;;;;;9.37;63.05;99730.03;20822948;28;20052;-70
2021/04/29 21:18:17;;;;;;;7.32;4.95;;;;;;;9.19;63.70;99750.28;20812665;28;20045;-70
2021/04/29 21:28:20;;;;;;;7.55;4.80;;;;;;;8.99;64.70;99761.00;20824834;28;20048;-70
2021/04/29 21:38:21;;;;;;;7.18;4.43;;;;;;;8.67;66.95;99768.09;20807461;28;20095;-70
2021/04/29 21:48:23;;;;;;;9.00;4.32;;;;;;;8.52;68.59;99780.22;20825803;28;20053;-70
2021/04/29 21:58:24;;;;;;;7.70;4.60;;;;;;;8.46;67.53;99804.03;20896882;28;20057;-71
2021/04/29 22:08:26;;;;;;;7.57;4.13;;;;;;;8.22;69.33;99812.31;20795486;28;20041;-71
2021/04/29 22:18:28;;;;;;;8.25;5.03;;;;;;;8.04;72.86;99821.94;20803639;28;20091;-71
2021/04/29 22:28:30;;;;;;;8.88;5.10;;;;;;;7.84;72.95;99820.41;20843137;28;20045;-71
2021/04/29 22:38:31;;;;;;;7.88;5.20;;;;;;;7.54;73.72;99828.03;20901607;28;20496;-71
2021/04/29 22:48:33;;;;;;;9.45;4.97;;;;;;;7.13;76.57;99853.53;20901498;28;20049;-71
2021/04/29 22:58:34;;;;;;;10.43;6.63;;;;;;;7.06;78.90;99857.34;20891847;28;20041;-71
2021/04/29 23:08:36;;;;;;;8.40;5.43;;;;;;;6.88;80.11;99877.28;20900480;28;20076;-71
2021/04/29 23:18:37;;;;;;;12.00;6.72;;;;;;;6.76;81.95;99882.22;20900308;28;20118;-71
2021/04/29 23:28:39;;;;;;;10.23;6.40;;;;;;;6.44;81.45;99881.13;20818012;28;20046;-71
2021/04/29 23:38:40;;;;;;;14.45;6.15;;;;;;;6.06;84.25;99895.81;20854547;23;20040;-70
2021/04/29 23:48:42;;;;;;;8.73;5.90;;;;;;;6.00;85.14;99896.06;20959299;28;20056;-71
2021/04/29 23:58:43;;;;;;;10.50;6.30;;;;;;;5.86;85.84;99896.66;20996047;28;20098;-70
